Time;durP1;ratioP1;P1;durP2;ratioP2;P2;SDS_P1;SDS_P2;PMS_P1;PMS_P2;Temp;Humidity;BMP_temperature;BMP_pressure;BME280_temperature;BME280_humidity;BME280_pressure;Samples;Min_cycle;Max_cycle;Signal;HPM_P1;HPM_P2
2022/04/16 00:00:59;;;;;;;21.43;9.80;;;;;;;11.53;51.44;100254.01;123397;1099;104706;-77
2022/04/16 00:03:31;;;;;;;21.73;9.77;;;;;;;11.51;51.14;100252.25;123350;1096;104416;-78
2022/04/16 00:06:04;;;;;;;23.03;9.80;;;;;;;11.50;51.39;100244.33;123374;1098;104376;-78
2022/04/16 00:08:37;;;;;;;25.88;10.40;;;;;;;11.47;51.41;100245.12;123428;1099;104374;-77
2022/04/16 00:11:09;;;;;;;23.33;10.40;;;;;;;11.45;51.84;100240.66;123394;1099;104332;-78
2022/04/16 00:13:41;;;;;;;20.50;9.85;;;;;;;11.40;51.73;100234.39;123384;1098;104238;-78
2022/04/16 00:16:16;;;;;;;23.60;10.00;;;;;;;11.35;52.03;100223.75;123389;1099;104315;-78
2022/04/16 00:18:49;;;;;;;24.10;9.40;;;;;;;11.32;51.89;100227.17;123359;1098;104434;-78
2022/04/16 00:21:23;;;;;;;25.67;10.57;;;;;;;11.28;52.33;100227.95;123388;1097;104674;-78
2022/04/16 00:23:55;;;;;;;20.87;9.37;;;;;;;11.28;52.15;100219.16;123368;1099;104666;-77
2022/04/16 00:26:27;;;;;;;25.50;10.23;;;;;;;11.28;52.24;100213.91;123435;1098;104277;-77
2022/04/16 00:28:59;;;;;;;23.97;10.00;;;;;;;11.26;52.13;100218.23;123325;1098;104421;-78
2022/04/16 00:31:34;;;;;;;22.40;10.00;;;;;;;11.25;52.52;100221.70;123382;1099;104331;-76
2022/04/16 00:34:07;;;;;;;23.47;10.63;;;;;;;11.25;52.29;100216.45;123391;1099;104499;-78
2022/04/16 00:36:40;;;;;;;28.07;10.30;;;;;;;11.22;52.43;100224.23;123359;1099;104274;-77
2022/04/16 00:39:13;;;;;;;24.63;9.90;;;;;;;11.19;52.54;100221.52;123404;1099;104268;-77
2022/04/16 00:41:46;;;;;;;24.60;10.40;;;;;;;11.17;52.27;100212.72;123354;1099;104338;-77
2022/04/16 00:44:19;;;;;;;22.63;9.90;;;;;;;11.12;52.96;100205.59;123346;1099;104386;-77
2022/04/16 00:46:52;;;;;;;19.97;9.23;;;;;;;11.08;53.05;100206.37;123408;1099;104285;-78
2022/04/16 00:49:24;;;;;;;20.73;9.57;;;;;;;11.08;52.68;100203.75;123400;1099;104313;-77
2022/04/16 00:51:56;;;;;;;22.27;9.73;;;;;;;11.13;52.84;100204.76;123391;1099;104310;-78
2022/04/16 00:54:27;;;;;;;21.13;9.60;;;;;;;11.17;53.16;100203.09;123370;1098;104332;-77
2022/04/16 00:56:58;;;;;;;22.43;10.70;;;;;;;11.18;52.82;100198.76;123349;1099;104440;-79
2022/04/16 00:59:30;;;;;;;19.15;9.40;;;;;;;11.18;53.08;100198.76;123372;1099;104351;-78
2022/04/16 01:02:04;;;;;;;20.60;9.23;;;;;;;11.17;52.97;100189.09;123362;1099;104335;-78
2022/04/16 01:04:36;;;;;;;20.65;9.30;;;;;;;11.16;53.34;100185.58;123410;1099;104262;-77
2022/04/16 01:07:10;;;;;;;18.60;8.63;;;;;;;11.15;53.00;100178.54;123392;1098;104340;-78
2022/04/16 01:09:43;;;;;;;21.23;9.03;;;;;;;11.16;53.34;100180.33;123413;1099;104297;-78
2022/04/16 01:12:16;;;;;;;18.63;9.03;;;;;;;11.18;53.13;100185.63;123388;1098;104306;-78
2022/04/16 01:14:49;;;;;;;22.00;9.00;;;;;;;11.19;53.27;100179.50;123384;1098;104320;-78
2022/04/16 01:17:22;;;;;;;19.50;9.50;;;;;;;11.20;53.48;100194.42;123388;1099;104296;-78
2022/04/16 01:19:57;;;;;;;19.67;9.30;;;;;;;11.15;53.39;100194.30;123380;1098;104370;-78
2022/04/16 01:22:31;;;;;;;19.97;8.73;;;;;;;11.11;53.29;100197.67;123343;1099;104364;-78
2022/04/16 01:25:01;;;;;;;;;;;;;;;11.03;53.19;100194.86;123406;1099;104269;-78
2022/04/16 01:27:39;;;;;;;20.67;9.20;;;;;;;11.02;53.49;100202.69;123387;1099;111790;-78
2022/04/16 01:30:13;;;;;;;18.13;8.47;;;;;;;11.01;53.79;100199.15;123442;1098;104236;-78
2022/04/16 01:32:44;;;;;;;18.82;8.45;;;;;;;11.02;53.70;100206.19;123361;1099;104236;-78
2022/04/16 01:35:16;;;;;;;19.40;8.20;;;;;;;11.01;53.70;100212.28;123331;1097;104406;-78
2022/04/16 01:37:49;;;;;;;21.43;9.27;;;;;;;10.94;54.20;100218.21;123341;1099;104302;-78
2022/04/16 01:40:20;;;;;;;21.23;10.00;;;;;;;10.79;54.43;100226.50;123341;1099;104364;-77
2022/04/16 01:42:56;;;;;;;19.55;9.90;;;;;;;10.56;54.67;100234.54;123356;1099;104188;-77
2022/04/16 01:45:28;;;;;;;24.67;11.10;;;;;;;10.36;54.62;100228.69;123406;1099;104280;-78
2022/04/16 01:48:01;;;;;;;19.90;9.77;;;;;;;10.24;54.94;100229.14;123383;1099;104399;-77
2022/04/16 01:50:35;;;;;;;21.90;10.83;;;;;;;10.15;56.09;100233.20;123376;1099;104434;-77
2022/04/16 01:53:09;;;;;;;22.75;11.10;;;;;;;10.06;56.05;100232.03;123346;1099;104393;-78
2022/04/16 01:55:41;;;;;;;23.35;11.00;;;;;;;9.98;55.38;100228.27;123372;1099;104319;-76
2022/04/16 01:58:14;;;;;;;25.07;12.00;;;;;;;9.90;56.02;100225.39;123375;1099;104266;-78
2022/04/16 02:00:45;;;;;;;26.15;12.05;;;;;;;9.83;55.80;100233.90;123335;1099;104284;-78
2022/04/16 02:03:21;;;;;;;24.77;11.30;;;;;;;9.81;55.56;100226.81;123382;1096;104267;-78
2022/04/16 02:05:53;;;;;;;27.05;11.80;;;;;;;9.81;56.53;100224.19;123362;1096;105373;-77
2022/04/16 02:08:26;;;;;;;23.13;11.43;;;;;;;9.80;56.54;100223.31;123364;1099;104326;-78
2022/04/16 02:10:58;;;;;;;26.27;13.13;;;;;;;9.82;57.16;100210.27;123355;1099;104309;-78
2022/04/16 02:13:29;;;;;;;25.93;12.70;;;;;;;9.83;56.98;100209.41;123345;1098;104313;-78
2022/04/16 02:16:03;;;;;;;25.60;12.93;;;;;;;9.79;57.81;100213.66;123397;1099;104256;-77
2022/04/16 02:18:36;;;;;;;27.33;13.27;;;;;;;9.67;57.41;100210.61;123374;1099;104325;-77
2022/04/16 02:21:10;;;;;;;31.73;12.80;;;;;;;9.61;57.81;100207.78;123415;1099;104232;-77
2022/04/16 02:23:43;;;;;;;24.83;13.43;;;;;;;9.57;58.28;100204.17;123373;1097;104413;-78
2022/04/16 02:26:14;;;;;;;28.67;13.63;;;;;;;9.51;58.71;100201.34;123358;1099;104341;-77
2022/04/16 02:28:45;;;;;;;30.37;14.63;;;;;;;9.48;59.23;100198.61;123391;1099;104235;-77
2022/04/16 02:31:16;;;;;;;29.73;14.87;;;;;;;9.42;58.90;100198.39;123387;1099;104275;-77
2022/04/16 02:33:48;;;;;;;26.03;13.77;;;;;;;9.37;60.08;100195.61;123414;1099;104248;-77
2022/04/16 02:36:23;;;;;;;26.70;14.53;;;;;;;9.32;59.34;100210.27;123431;1099;104367;-76
2022/04/16 02:38:56;;;;;;;28.30;14.20;;;;;;;9.23;59.26;100202.97;123605;1099;108678;-76
2022/04/16 02:41:28;;;;;;;27.50;12.93;;;;;;;9.22;59.23;100195.94;123444;1099;104341;-77
2022/04/16 02:44:02;;;;;;;29.07;13.70;;;;;;;9.21;59.78;100202.03;123357;1099;104344;-78
2022/04/16 02:49:23;;;;;;;28.20;13.70;;;;;;;9.16;59.41;100199.24;123350;1098;118720;-77
2022/04/16 02:51:56;;;;;;;30.67;15.00;;;;;;;9.12;59.91;100194.72;123389;1097;104252;-78
2022/04/16 02:54:28;;;;;;;31.60;13.73;;;;;;;9.10;60.40;100195.48;123449;1099;104354;-77
2022/04/16 02:57:00;;;;;;;29.55;14.10;;;;;;;9.08;59.77;100191.93;123303;1099;104373;-78
2022/04/16 02:59:33;;;;;;;32.80;14.57;;;;;;;9.06;59.37;100191.88;123399;1099;104281;-78
2022/04/16 03:02:03;;;;;;;;;;;;;;;9.03;60.00;100197.00;123386;1099;104360;-78
2022/04/16 03:04:34;;;;;;;28.80;14.07;;;;;;;9.02;59.38;100199.56;123367;1099;104293;-78
2022/04/16 03:07:07;;;;;;;28.70;13.80;;;;;;;9.02;59.44;100205.67;123375;1099;104379;-77
2022/04/16 03:09:40;;;;;;;27.20;13.73;;;;;;;9.02;59.70;100207.41;123370;1099;104278;-77
2022/04/16 03:12:12;;;;;;;28.30;13.50;;;;;;;8.99;60.13;100205.55;123359;1098;104335;-78
2022/04/16 03:17:33;;;;;;;31.23;14.63;;;;;;;8.93;60.44;100207.98;123329;1098;104393;-79
2022/04/16 03:20:09;;;;;;;31.37;14.50;;;;;;;8.89;60.31;100212.18;123388;1099;104294;-77
2022/04/16 03:22:44;;;;;;;27.20;14.03;;;;;;;8.88;60.43;100215.66;123422;1097;104306;-78
2022/04/16 03:25:15;;;;;;;33.57;14.20;;;;;;;8.88;59.98;100214.73;123325;1098;104332;-78
2022/04/16 03:27:47;;;;;;;31.35;14.10;;;;;;;8.87;60.59;100213.86;123345;1099;104328;-78
2022/04/16 03:30:19;;;;;;;26.77;13.40;;;;;;;8.86;60.54;100205.95;123341;1099;104348;-78
2022/04/16 03:32:55;;;;;;;29.40;13.93;;;;;;;8.89;60.42;100204.33;123401;1099;104219;-78
2022/04/16 03:35:30;;;;;;;32.47;14.27;;;;;;;8.91;60.62;100194.83;123389;1099;104338;-78
2022/04/16 03:38:04;;;;;;;27.25;13.50;;;;;;;8.95;60.82;100199.33;123439;1098;104290;-77
2022/04/16 03:40:38;;;;;;;28.43;14.40;;;;;;;8.98;61.45;100199.44;123376;1099;117762;-78
2022/04/16 03:43:11;;;;;;;27.02;13.28;;;;;;;9.00;61.13;100205.61;123368;1099;104268;-78
2022/04/16 03:45:46;;;;;;;27.83;13.87;;;;;;;9.04;62.78;100214.49;123429;1096;104303;-77
2022/04/16 03:48:17;;;;;;;31.10;15.23;;;;;;;9.07;61.52;100217.22;123582;1098;104329;-76
2022/04/16 03:50:51;;;;;;;28.00;14.10;;;;;;;9.09;62.48;100218.16;123523;1097;104272;-76
2022/04/16 03:53:24;;;;;;;26.55;13.18;;;;;;;9.14;62.38;100207.86;123577;1097;104274;-77
2022/04/16 04:01:47;;;;;;;24.20;13.23;;;;;;;9.31;62.52;100213.72;123522;1096;104319;-77
2022/04/16 04:04:22;;;;;;;26.37;14.10;;;;;;;9.42;61.71;100216.72;123424;1096;104374;-78
2022/04/16 04:07:00;;;;;;;25.10;14.27;;;;;;;9.51;61.91;100222.29;123437;1099;104404;-78
2022/04/16 04:09:44;;;;;;;26.30;13.63;;;;;;;9.56;62.83;100225.95;123380;1099;104364;-78
2022/04/16 04:12:18;;;;;;;29.00;14.10;;;;;;;9.62;62.38;100223.55;123407;1099;105084;-78
2022/04/16 04:14:51;;;;;;;24.12;13.40;;;;;;;9.68;62.34;100225.50;123412;1099;104261;-78
2022/04/16 04:17:23;;;;;;;24.90;13.00;;;;;;;9.75;62.35;100239.70;123409;1098;104459;-78
2022/04/16 04:19:56;;;;;;;26.40;13.83;;;;;;;9.82;61.89;100236.47;123333;1099;104434;-78
2022/04/16 04:22:28;;;;;;;25.30;13.57;;;;;;;9.88;62.00;100239.30;123412;1098;104258;-77
2022/04/16 04:25:02;;;;;;;27.10;14.47;;;;;;;9.91;62.61;100242.02;123357;1099;104342;-78
2022/04/16 04:27:34;;;;;;;33.58;18.95;;;;;;;9.99;62.66;100230.06;123629;1098;104325;-76
2022/04/16 04:30:08;;;;;;;34.95;20.70;;;;;;;10.05;63.22;100229.36;123570;1099;104387;-76
2022/04/16 04:32:43;;;;;;;33.55;21.95;;;;;;;10.14;63.10;100236.65;123467;1099;104280;-78
2022/04/16 04:35:15;;;;;;;37.37;23.53;;;;;;;10.22;62.79;100248.27;123458;1099;104617;-77
2022/04/16 04:37:47;;;;;;;36.60;23.37;;;;;;;10.31;63.71;100251.20;123625;1099;104613;-77
2022/04/16 04:40:21;;;;;;;35.50;22.00;;;;;;;10.39;63.09;100247.15;123554;1099;104213;-78
2022/04/16 04:42:53;;;;;;;32.38;20.02;;;;;;;10.52;63.19;100252.80;123453;1099;104316;-77
2022/04/16 04:45:26;;;;;;;29.83;17.33;;;;;;;10.64;63.01;100247.02;123415;1098;104472;-77
2022/04/16 04:47:59;;;;;;;31.30;18.80;;;;;;;10.75;63.25;100257.02;123458;1099;104293;-77
2022/04/16 04:50:32;;;;;;;27.77;16.20;;;;;;;10.88;63.26;100260.03;123517;1099;104204;-77
2022/04/16 04:53:03;;;;;;;30.03;17.03;;;;;;;11.02;63.34;100261.33;123698;1099;104743;-76
2022/04/16 04:55:36;;;;;;;27.43;15.97;;;;;;;11.14;63.26;100259.07;123606;1099;104325;-76
2022/04/16 04:58:10;;;;;;;26.33;15.28;;;;;;;11.27;63.14;100262.94;123578;1099;104695;-76
2022/04/16 05:00:43;;;;;;;26.15;14.95;;;;;;;11.41;63.79;100257.20;123589;1099;105428;-78
2022/04/16 05:03:20;;;;;;;27.85;16.25;;;;;;;11.53;63.04;100248.75;123692;1099;104271;-78
2022/04/16 05:05:56;;;;;;;25.97;15.13;;;;;;;11.66;63.56;100257.02;123532;1098;104392;-76
2022/04/16 05:08:32;;;;;;;25.30;14.60;;;;;;;11.81;63.54;100256.55;123459;1099;104325;-77
2022/04/16 05:11:04;;;;;;;27.70;15.23;;;;;;;11.91;63.63;100259.44;123400;1099;104253;-78
2022/04/16 05:13:37;;;;;;;25.13;14.77;;;;;;;12.02;63.38;100250.98;123437;1098;104303;-76
2022/04/16 05:16:12;;;;;;;25.57;14.90;;;;;;;12.16;63.54;100253.09;123516;1099;104281;-77
2022/04/16 05:18:48;;;;;;;26.43;15.67;;;;;;;12.26;63.46;100254.20;123178;1102;104331;-77
2022/04/16 05:21:23;;;;;;;30.00;14.80;;;;;;;12.39;63.82;100262.44;123517;1099;105605;-77
2022/04/16 05:23:55;;;;;;;26.70;15.17;;;;;;;12.53;63.55;100265.41;123565;1099;104349;-77
2022/04/16 05:26:28;;;;;;;30.30;15.90;;;;;;;12.67;63.57;100257.84;123554;1099;104398;-76
2022/04/16 05:29:00;;;;;;;24.70;15.00;;;;;;;12.81;63.53;100262.52;123692;1099;104222;-76
2022/04/16 05:31:32;;;;;;;27.30;15.67;;;;;;;12.91;63.07;100260.13;123653;1099;104252;-77
2022/04/16 05:34:20;;;;;;;25.97;14.80;;;;;;;12.97;63.37;100258.51;123501;1099;104315;-77
2022/04/16 05:36:53;;;;;;;24.93;15.23;;;;;;;13.01;62.92;100263.87;123435;1098;104389;-77
2022/04/16 05:39:25;;;;;;;23.77;14.13;;;;;;;13.02;62.87;100259.48;123497;1096;104478;-76
2022/04/16 05:41:57;;;;;;;24.75;14.95;;;;;;;13.01;63.03;100263.87;123454;1098;104358;-77
2022/04/16 05:44:28;;;;;;;28.60;15.57;;;;;;;13.02;63.31;100270.90;123638;1099;104259;-76
2022/04/16 05:47:01;;;;;;;27.67;15.73;;;;;;;13.02;64.07;100283.19;123528;1098;104246;-76
2022/04/16 05:49:33;;;;;;;26.30;15.60;;;;;;;13.01;64.04;100271.78;123548;1099;104338;-77
2022/04/16 05:52:05;;;;;;;30.17;15.70;;;;;;;13.04;63.88;100270.93;123710;1098;104505;-77
2022/04/16 05:54:39;;;;;;;25.67;15.43;;;;;;;13.09;63.60;100266.68;123586;1099;104683;-77
2022/04/16 05:57:12;;;;;;;25.10;15.27;;;;;;;13.16;63.51;100273.84;123702;1099;104315;-77
2022/04/16 05:59:45;;;;;;;25.83;15.87;;;;;;;13.21;63.71;100273.94;123700;1099;104361;-77
2022/04/16 06:02:18;;;;;;;25.33;15.60;;;;;;;13.29;63.66;100274.98;123624;1099;104265;-75
2022/04/16 06:04:54;;;;;;;27.67;15.10;;;;;;;13.37;63.21;100278.72;123622;1099;104367;-77
2022/04/16 06:07:26;;;;;;;25.80;15.50;;;;;;;13.45;63.10;100271.85;123626;1099;104318;-78
2022/04/16 06:10:01;;;;;;;29.03;16.20;;;;;;;13.60;63.30;100273.00;123626;1097;104261;-75
2022/04/16 06:12:34;;;;;;;28.47;16.17;;;;;;;13.66;63.54;100278.40;123738;1099;104274;-77
2022/04/16 06:15:07;;;;;;;30.93;16.97;;;;;;;13.78;62.83;100270.73;123582;1099;104723;-77
2022/04/16 06:17:39;;;;;;;26.90;16.00;;;;;;;13.88;63.37;100290.24;123740;1099;104249;-76
2022/04/16 06:20:13;;;;;;;24.90;15.17;;;;;;;13.99;62.49;100301.91;123602;1099;104213;-77
2022/04/16 06:22:43;;;;;;;;;;;;;;;14.10;62.66;100291.55;123963;1098;104428;-76
2022/04/16 06:25:17;;;;;;;26.63;15.37;;;;;;;14.23;62.43;100279.45;123683;1097;104265;-77
2022/04/16 06:27:49;;;;;;;26.90;15.83;;;;;;;14.37;62.40;100283.20;123915;1099;104907;-80
2022/04/16 06:30:23;;;;;;;26.37;15.73;;;;;;;14.48;62.04;100275.47;123571;1099;104355;-77
2022/04/16 06:32:56;;;;;;;26.17;15.67;;;;;;;14.62;61.78;100269.56;123610;1099;104339;-76
2022/04/16 06:35:30;;;;;;;28.47;16.33;;;;;;;14.76;62.22;100275.03;123841;1099;104261;-76
2022/04/16 06:38:01;;;;;;;24.67;15.15;;;;;;;14.86;61.68;100280.47;123707;1096;104242;-77
2022/04/16 06:40:34;;;;;;;25.23;14.93;;;;;;;14.99;61.02;100288.58;123622;1097;104397;-76
2022/04/16 06:43:08;;;;;;;27.00;15.47;;;;;;;15.11;60.62;100280.82;123688;1099;104401;-76
2022/04/16 06:45:45;;;;;;;27.10;15.53;;;;;;;15.22;60.87;100281.88;123800;1098;104338;-77
2022/04/16 06:48:18;;;;;;;27.97;15.60;;;;;;;15.28;60.32;100276.64;123870;1099;104265;-77
2022/04/16 06:50:56;;;;;;;25.48;15.03;;;;;;;15.36;59.62;100286.44;123892;1097;104233;-77
2022/04/16 06:53:30;;;;;;;24.37;14.80;;;;;;;15.48;59.45;100273.38;124085;1099;104294;-75
2022/04/16 06:59:10;;;;;;;25.77;14.87;;;;;;;15.76;58.91;100269.28;123923;1099;104300;-76
2022/04/16 07:01:42;;;;;;;27.10;15.35;;;;;;;15.84;59.12;100260.58;123820;1099;104344;-76
2022/04/16 07:04:14;;;;;;;24.83;15.13;;;;;;;15.90;58.87;100264.17;123805;1099;104281;-77
2022/04/16 07:06:50;;;;;;;23.17;14.47;;;;;;;16.03;58.73;100262.52;123937;1097;104348;-76
2022/04/16 07:09:25;;;;;;;24.73;13.60;;;;;;;16.18;58.54;100267.96;123914;1099;104415;-77
2022/04/16 07:12:00;;;;;;;23.50;14.37;;;;;;;16.29;56.52;100275.13;124002;1099;104738;-76
2022/04/16 07:14:34;;;;;;;22.13;13.68;;;;;;;16.31;57.58;100262.78;123782;1099;104399;-76
2022/04/16 07:17:08;;;;;;;25.35;14.23;;;;;;;16.43;57.86;100267.30;123603;1099;104246;-76
2022/04/16 07:19:43;;;;;;;25.90;14.50;;;;;;;16.51;56.85;100268.23;124264;1098;104693;-76
2022/04/16 07:22:18;;;;;;;24.63;13.40;;;;;;;16.62;55.90;100263.90;123785;1099;104373;-74
2022/04/16 07:24:51;;;;;;;24.93;14.20;;;;;;;16.66;55.66;100265.70;123829;1099;104945;-77
2022/04/16 07:27:23;;;;;;;25.13;14.10;;;;;;;16.67;55.49;100261.28;124010;1099;104319;-76
2022/04/16 07:29:58;;;;;;;22.77;12.97;;;;;;;16.78;55.60;100269.30;123877;1099;104236;-76
2022/04/16 07:32:31;;;;;;;23.23;12.47;;;;;;;16.91;56.34;100259.70;123861;1099;104336;-76
2022/04/16 07:35:03;;;;;;;24.02;13.22;;;;;;;17.02;56.35;100263.32;123529;1099;108545;-78
2022/04/16 07:37:34;;;;;;;21.47;13.47;;;;;;;17.11;56.23;100262.46;123831;1098;104261;-77
2022/04/16 07:40:10;;;;;;;24.90;13.90;;;;;;;17.06;55.00;100263.34;124074;1099;104187;-75
2022/04/16 07:42:44;;;;;;;24.00;13.33;;;;;;;17.13;55.17;100260.73;123932;1099;104319;-75
2022/04/16 07:45:16;;;;;;;23.60;13.23;;;;;;;17.15;54.97;100254.53;123967;1099;118762;-76
2022/04/16 07:47:50;;;;;;;24.33;13.57;;;;;;;17.33;54.49;100247.56;123949;1099;104357;-76
2022/04/16 07:50:28;;;;;;;22.52;12.88;;;;;;;17.45;55.09;100252.88;124009;1099;104293;-77
2022/04/16 07:53:00;;;;;;;23.47;13.13;;;;;;;17.52;54.53;100251.16;123885;1099;104274;-76
2022/04/16 07:55:36;;;;;;;25.90;12.93;;;;;;;17.64;53.29;100256.51;123915;1099;104231;-76
2022/04/16 07:58:08;;;;;;;21.53;11.43;;;;;;;17.70;53.45;100251.22;123791;1099;104670;-76
2022/04/16 08:00:44;;;;;;;19.60;11.63;;;;;;;17.65;52.62;100249.42;123779;1099;104354;-76
2022/04/16 08:03:18;;;;;;;20.80;11.60;;;;;;;17.71;51.95;100265.36;123588;1099;105028;-77
2022/04/16 08:05:59;;;;;;;22.13;11.33;;;;;;;17.72;52.95;100256.53;123830;1099;112634;-76
2022/04/16 08:08:44;;;;;;;21.13;11.07;;;;;;;17.75;52.84;100256.54;123551;1099;104230;-77
2022/04/16 08:11:34;;;;;;;21.63;11.37;;;;;;;17.67;51.11;100258.27;123565;1099;104293;-76
2022/04/16 08:14:06;;;;;;;21.67;10.77;;;;;;;17.74;52.42;100252.98;123513;1099;104486;-76
2022/04/16 08:16:39;;;;;;;19.37;10.70;;;;;;;17.80;52.40;100257.42;123446;1099;104262;-76
2022/04/16 08:19:11;;;;;;;20.17;11.00;;;;;;;17.82;52.28;100260.95;123549;1098;104341;-76
2022/04/16 08:21:44;;;;;;;20.00;10.90;;;;;;;17.79;52.46;100268.91;123602;1099;104309;-77
2022/04/16 08:24:38;;;;;;;17.50;10.10;;;;;;;17.72;51.97;100269.80;123733;1099;104255;-76
2022/04/16 08:27:32;;;;;;;19.23;10.40;;;;;;;17.58;50.87;100259.14;123708;1099;104393;-76
2022/04/16 08:30:04;;;;;;;19.23;10.13;;;;;;;17.54;50.99;100255.57;123675;1099;104717;-78
2022/04/16 08:32:41;;;;;;;18.30;10.13;;;;;;;17.55;51.69;100254.70;123492;1099;104383;-77
2022/04/16 08:35:17;;;;;;;16.93;8.87;;;;;;;17.53;51.49;100266.17;123692;1098;104376;-76
2022/04/16 08:37:51;;;;;;;16.40;9.33;;;;;;;17.52;51.49;100262.65;123552;1099;104367;-76
2022/04/16 08:40:24;;;;;;;18.10;8.77;;;;;;;17.54;51.46;100260.00;123525;1099;104448;-76
2022/04/16 08:43:05;;;;;;;17.87;8.97;;;;;;;17.59;51.40;100256.50;123425;1099;104360;-76
2022/04/16 08:45:42;;;;;;;17.90;9.50;;;;;;;17.71;50.76;100263.58;123785;1099;104271;-76
2022/04/16 08:48:15;;;;;;;18.70;8.67;;;;;;;17.87;49.86;100258.31;123691;1099;104348;-76
2022/04/16 08:50:54;;;;;;;19.07;9.38;;;;;;;18.09;50.24;100253.95;123506;1098;104773;-77
2022/04/16 08:53:27;;;;;;;15.83;7.83;;;;;;;18.31;49.89;100253.09;123380;1099;104389;-76
2022/04/16 08:56:00;;;;;;;15.23;7.73;;;;;;;18.56;50.16;100246.86;123768;1098;104294;-75
2022/04/16 08:58:33;;;;;;;15.23;7.50;;;;;;;18.74;49.25;100244.19;123555;1099;104637;-77
2022/04/16 09:01:08;;;;;;;16.60;7.90;;;;;;;18.89;48.76;100239.78;123655;1099;104335;-78
2022/04/16 09:03:47;;;;;;;;;;;;;;;19.01;48.02;100237.96;123538;1099;104270;-77
2022/04/16 09:06:27;;;;;;;13.80;7.20;;;;;;;19.13;48.62;100238.80;123502;1099;104370;-76
2022/04/16 09:09:09;;;;;;;13.93;6.77;;;;;;;19.20;48.34;100238.78;123507;1099;104246;-78
2022/04/16 09:11:44;;;;;;;15.80;6.83;;;;;;;19.23;47.37;100240.55;123669;1099;104237;-76
2022/04/16 09:14:42;;;;;;;13.53;6.20;;;;;;;19.20;47.27;100230.80;123615;1099;104268;-78
2022/04/16 09:17:18;;;;;;;13.03;6.47;;;;;;;19.25;47.24;100230.78;123777;1099;104264;-76
2022/04/16 09:19:56;;;;;;;11.13;6.00;;;;;;;19.30;45.03;100236.08;123542;1099;104424;-76
2022/04/16 09:22:37;;;;;;;13.13;6.20;;;;;;;19.32;45.96;100240.52;123687;1098;104316;-76
2022/04/16 09:25:16;;;;;;;12.03;6.37;;;;;;;19.39;45.51;100236.04;123701;1099;104293;-78
2022/04/16 09:27:49;;;;;;;13.03;6.17;;;;;;;19.52;45.92;100231.53;123621;1099;104610;-77
2022/04/16 09:30:28;;;;;;;12.37;6.07;;;;;;;19.64;45.81;100238.58;123484;1099;104351;-77
2022/04/16 09:33:01;;;;;;;10.63;6.10;;;;;;;19.72;45.40;100234.95;123529;1099;104366;-77
2022/04/16 09:35:33;;;;;;;9.83;5.63;;;;;;;19.80;45.50;100234.07;123255;1099;104331;-77
2022/04/16 09:38:37;;;;;;;10.77;5.80;;;;;;;19.90;43.45;100239.33;123585;1099;111959;-75
2022/04/16 09:41:11;;;;;;;13.83;6.10;;;;;;;19.88;42.86;100248.21;123835;1099;104411;-76
2022/04/16 09:43:48;;;;;;;11.43;5.47;;;;;;;19.75;43.85;100244.72;123350;1099;104496;-77
2022/04/16 09:46:20;;;;;;;12.53;6.60;;;;;;;19.55;42.96;100244.83;123684;1099;104545;-76
2022/04/16 09:48:59;;;;;;;14.60;6.70;;;;;;;19.49;44.29;100239.53;123509;1099;104428;-77
2022/04/16 09:51:44;;;;;;;17.65;8.15;;;;;;;19.43;44.19;100243.13;123563;1099;104386;-76
2022/04/16 09:54:18;;;;;;;13.53;7.47;;;;;;;19.37;44.11;100243.16;123510;1099;104409;-76
2022/04/16 09:56:51;;;;;;;14.03;7.40;;;;;;;19.40;44.74;100254.66;123420;1099;104411;-77
2022/04/16 09:59:28;;;;;;;14.83;7.80;;;;;;;19.42;44.42;100259.09;123305;1099;104562;-76
2022/04/16 10:02:02;;;;;;;15.35;7.90;;;;;;;19.40;44.69;100264.42;123693;1099;104348;-76
2022/04/16 10:04:35;;;;;;;16.63;8.80;;;;;;;19.44;45.26;100255.52;123274;1099;104424;-77
2022/04/16 10:07:09;;;;;;;17.60;8.70;;;;;;;19.50;45.05;100251.95;123571;1099;104409;-78
2022/04/16 10:09:42;;;;;;;17.00;8.70;;;;;;;19.49;44.69;100252.83;123787;1099;104463;-77
2022/04/16 10:15:11;;;;;;;14.67;7.87;;;;;;;19.38;44.79;100259.11;123670;1099;104322;-77
2022/04/16 10:17:51;;;;;;;18.40;8.57;;;;;;;19.38;45.40;100255.55;123655;1099;106052;-76
2022/04/16 10:20:25;;;;;;;17.80;8.60;;;;;;;19.50;45.24;100266.13;123531;1099;104348;-77
2022/04/16 10:22:58;;;;;;;16.67;8.27;;;;;;;19.56;45.24;100265.23;123548;1099;104197;-75
2022/04/16 10:25:34;;;;;;;16.70;8.60;;;;;;;19.65;45.20;100262.53;123518;1099;104338;-78
2022/04/16 10:28:12;;;;;;;14.70;8.07;;;;;;;19.80;44.82;100266.02;123535;1099;104271;-77
2022/04/16 10:30:52;;;;;;;15.97;8.37;;;;;;;19.76;44.76;100265.13;123577;1099;104325;-77
2022/04/16 10:33:31;;;;;;;17.93;8.67;;;;;;;19.63;44.18;100261.63;123692;1099;104309;-76
2022/04/16 10:36:09;;;;;;;16.73;8.40;;;;;;;19.56;44.58;100268.77;123707;1099;104457;-75
2022/04/16 10:38:43;;;;;;;16.50;8.10;;;;;;;19.58;44.29;100263.44;123682;1099;105428;-77
2022/04/16 10:41:17;;;;;;;17.53;7.83;;;;;;;19.58;43.87;100268.76;123697;1099;104398;-77
2022/04/16 10:43:57;;;;;;;14.80;7.50;;;;;;;19.58;44.00;100282.06;123648;1099;104386;-79
2022/04/16 10:46:44;;;;;;;15.73;7.57;;;;;;;19.58;44.26;100274.95;123704;1098;104283;-76
2022/04/16 10:49:18;;;;;;;13.73;6.80;;;;;;;19.58;43.87;100274.08;123952;1099;104175;-77
2022/04/16 10:51:52;;;;;;;11.00;6.70;;;;;;;19.62;44.25;100277.60;123719;1099;104313;-76
2022/04/16 10:54:32;;;;;;;11.03;6.30;;;;;;;19.66;43.55;100266.94;123700;1099;104328;-77
2022/04/16 10:57:06;;;;;;;12.77;6.80;;;;;;;19.72;43.14;100264.23;123953;1099;104241;-76
2022/04/16 10:59:40;;;;;;;14.20;7.00;;;;;;;19.70;43.39;100270.48;123957;1098;104221;-76
2022/04/16 11:02:23;;;;;;;9.90;6.00;;;;;;;19.56;42.86;100262.57;124005;1099;104265;-78
2022/04/16 11:05:07;;;;;;;14.20;6.70;;;;;;;19.47;43.27;100262.61;123720;1099;104303;-77
2022/04/16 11:07:42;;;;;;;12.20;6.70;;;;;;;19.44;43.74;100268.82;123688;1099;104293;-79
2022/04/16 11:10:15;;;;;;;16.25;7.45;;;;;;;19.30;42.49;100260.02;123728;1099;104287;-77
2022/04/16 11:12:47;;;;;;;13.77;6.97;;;;;;;19.25;42.91;100254.72;123698;1099;104322;-76
2022/04/16 11:15:24;;;;;;;13.40;6.60;;;;;;;19.30;42.55;100268.88;123553;1099;104290;-76
2022/04/16 11:18:00;;;;;;;11.77;6.47;;;;;;;19.29;43.38;100263.56;123703;1099;104379;-77
2022/04/16 11:20:33;;;;;;;12.27;6.27;;;;;;;19.20;42.80;100265.38;123760;1099;104361;-76
2022/04/16 11:23:13;;;;;;;13.73;7.30;;;;;;;19.06;42.74;100258.31;123622;1099;104285;-76
2022/04/16 11:34:20;;;;;;;12.83;6.87;;;;;;;19.24;43.31;100241.42;123581;1099;104364;-79
2022/04/16 11:36:53;;;;;;;14.80;7.15;;;;;;;19.25;43.50;100252.05;123672;1099;104402;-77
2022/04/16 11:39:28;;;;;;;12.70;7.17;;;;;;;19.25;43.49;100246.73;123818;1099;104347;-76
2022/04/16 11:42:02;;;;;;;11.50;6.37;;;;;;;19.20;43.74;100249.41;123801;1099;104209;-77
2022/04/16 11:44:42;;;;;;;12.27;6.63;;;;;;;19.16;42.84;100252.09;123717;1098;104964;-76
2022/04/16 11:47:17;;;;;;;11.57;6.40;;;;;;;19.11;43.06;100237.94;123768;1099;104254;-78
2022/04/16 11:49:52;;;;;;;12.07;6.27;;;;;;;19.17;43.30;100232.59;123618;1098;105655;-76
2022/04/16 11:52:28;;;;;;;11.83;5.97;;;;;;;19.20;43.17;100240.56;123625;1099;104249;-76
2022/04/16 11:55:16;;;;;;;9.60;5.30;;;;;;;19.32;42.53;100229.88;123601;1099;104240;-77
2022/04/16 11:57:52;;;;;;;11.13;5.70;;;;;;;19.39;42.94;100242.23;123819;1099;104174;-77